Time;durP1;ratioP1;P1;durP2;ratioP2;P2;SDS_P1;SDS_P2;PMS_P1;PMS_P2;Temp;Humidity;BMP_temperature;BMP_pressure;BME280_temperature;BME280_humidity;BME280_pressure;Samples;Min_cycle;Max_cycle;Signal;HPM_P1;HPM_P2
2023/06/25 00:00:57;;;;;;;16.63;14.90;;;17.80;84.40;;;;;;4976930;28;20592;-87
2023/06/25 00:03:23;;;;;;;23.83;14.27;;;17.70;84.50;;;;;;4975892;28;20291;-86
2023/06/25 00:05:49;;;;;;;18.65;14.85;;;17.70;84.50;;;;;;4976886;28;20610;-87
2023/06/25 00:08:14;;;;;;;19.70;17.17;;;17.70;84.60;;;;;;4975502;28;20178;-87
2023/06/25 00:10:41;;;;;;;21.10;17.52;;;17.70;84.80;;;;;;4975576;28;20226;-87
2023/06/25 00:13:06;;;;;;;19.08;16.83;;;17.50;85.40;;;;;;4976681;28;20237;-87
2023/06/25 00:15:32;;;;;;;15.60;13.98;;;17.30;85.70;;;;;;4975423;28;20178;-87
2023/06/25 00:17:58;;;;;;;15.73;13.95;;;17.30;86.00;;;;;;4975516;28;20175;-87
2023/06/25 00:20:26;;;;;;;18.08;13.75;;;17.20;86.20;;;;;;4975586;28;20182;-87
2023/06/25 00:22:52;;;;;;;21.65;14.98;;;17.20;86.30;;;;;;4975343;28;20705;-87
2023/06/25 00:25:18;;;;;;;23.00;15.57;;;17.20;86.50;;;;;;4976625;28;20622;-87
2023/06/25 00:27:47;;;;;;;18.38;14.93;;;17.20;86.50;;;;;;4975238;28;20202;-87
2023/06/25 00:30:14;;;;;;;18.45;14.07;;;17.20;86.60;;;;;;4975247;28;20256;-87
2023/06/25 00:32:40;;;;;;;15.82;13.77;;;17.20;86.60;;;;;;4975136;28;20292;-86
2023/06/25 00:35:06;;;;;;;20.90;15.23;;;17.30;86.80;;;;;;4976332;28;20171;-87
2023/06/25 00:37:36;;;;;;;19.92;15.45;;;17.20;86.80;;;;;;4976381;28;20174;-87
2023/06/25 00:40:03;;;;;;;18.20;13.32;;;17.20;86.70;;;;;;4976105;28;20182;-87
2023/06/25 00:42:40;;;;;;;15.30;13.77;;;17.20;86.80;;;;;;4974945;28;20257;-86
2023/06/25 00:45:08;;;;;;;19.40;14.68;;;17.10;86.80;;;;;;4975081;28;20230;-87
2023/06/25 00:47:34;;;;;;;16.73;13.63;;;17.20;86.80;;;;;;4974807;28;20605;-87
2023/06/25 00:50:00;;;;;;;15.27;13.68;;;17.10;86.80;;;;;;4975966;28;20199;-87
2023/06/25 00:52:26;;;;;;;17.92;14.13;;;17.10;86.70;;;;;;4974996;28;20260;-87
2023/06/25 00:54:51;;;;;;;17.35;15.40;;;17.00;86.60;;;;;;4974603;28;20281;-87
2023/06/25 00:57:17;;;;;;;18.15;14.98;;;17.00;86.40;;;;;;4975835;28;20185;-87
2023/06/25 00:59:44;;;;;;;18.92;16.15;;;17.00;86.30;;;;;;4974751;28;20183;-87
2023/06/25 01:02:20;;;;;;;20.90;15.30;;;17.00;86.10;;;;;;4975746;28;20220;-86
2023/06/25 01:04:57;;;;;;;20.90;14.95;;;17.00;86.00;;;;;;4974757;28;20174;-87
2023/06/25 01:07:25;;;;;;;17.05;15.35;;;16.90;85.90;;;;;;4974542;28;20577;-87
2023/06/25 01:09:51;;;;;;;21.45;14.50;;;16.90;85.80;;;;;;4975599;28;20281;-87
2023/06/25 01:12:17;;;;;;;23.10;17.80;;;16.90;85.90;;;;;;4975896;28;20659;-86
2023/06/25 01:14:42;;;;;;;19.70;15.40;;;16.90;86.10;;;;;;4975756;28;20171;-87
2023/06/25 01:17:09;;;;;;;16.40;14.43;;;16.80;86.40;;;;;;4975457;28;20647;-87
2023/06/25 01:19:35;;;;;;;20.92;15.20;;;16.80;86.50;;;;;;4973825;28;20179;-87
2023/06/25 01:22:03;;;;;;;20.30;14.02;;;16.70;86.50;;;;;;4975400;28;20642;-87
2023/06/25 01:24:29;;;;;;;15.35;13.70;;;16.70;86.60;;;;;;4975335;28;20187;-87
2023/06/25 01:26:59;;;;;;;22.05;14.52;;;16.70;86.70;;;;;;4974166;28;20179;-87
2023/06/25 01:29:25;;;;;;;17.50;14.48;;;16.70;86.70;;;;;;4975261;28;20285;-87
2023/06/25 01:31:52;;;;;;;16.25;13.95;;;16.70;86.70;;;;;;4973980;28;20178;-87
2023/06/25 01:34:20;;;;;;;19.25;15.07;;;16.60;86.60;;;;;;4973937;28;20202;-87
2023/06/25 01:36:48;;;;;;;17.80;14.70;;;16.60;86.50;;;;;;4973965;28;20181;-87
2023/06/25 01:39:15;;;;;;;15.38;13.25;;;16.60;86.40;;;;;;4974991;28;20178;-87
2023/06/25 01:41:42;;;;;;;15.25;13.65;;;16.60;86.30;;;;;;4975600;28;20178;-87
2023/06/25 01:44:10;;;;;;;21.83;17.13;;;16.50;86.20;;;;;;4973760;28;20198;-87
2023/06/25 01:46:35;;;;;;;19.52;17.42;;;16.50;86.20;;;;;;4973826;28;20607;-86
2023/06/25 01:49:01;;;;;;;22.27;18.20;;;16.60;86.60;;;;;;4973627;28;20210;-87
2023/06/25 01:51:26;;;;;;;20.08;17.35;;;16.50;86.50;;;;;;4975183;28;20265;-87
2023/06/25 01:53:52;;;;;;;19.67;15.30;;;16.50;86.70;;;;;;4974664;28;20206;-86
2023/06/25 01:56:18;;;;;;;15.30;13.32;;;16.50;87.00;;;;;;4973643;28;20237;-86
2023/06/25 01:58:43;;;;;;;12.77;11.40;;;16.50;87.20;;;;;;4974035;28;20318;-87
2023/06/25 02:01:09;;;;;;;18.88;9.38;;;16.50;87.20;;;;;;4973422;28;20193;-87
2023/06/25 02:03:34;;;;;;;11.60;8.75;;;16.40;87.20;;;;;;4973459;28;20194;-87
2023/06/25 02:06:00;;;;;;;12.75;8.85;;;16.40;87.00;;;;;;4974692;28;20182;-87
2023/06/25 02:08:25;;;;;;;11.73;9.15;;;16.40;87.10;;;;;;4974153;28;20202;-87
2023/06/25 02:10:51;;;;;;;10.85;9.82;;;16.40;87.00;;;;;;4973333;28;20666;-86
2023/06/25 02:13:16;;;;;;;12.48;10.93;;;16.40;87.00;;;;;;4973238;28;20194;-87
2023/06/25 02:15:42;;;;;;;14.38;12.30;;;16.40;87.30;;;;;;4973311;28;20213;-87
2023/06/25 02:18:07;;;;;;;19.15;13.23;;;16.40;87.50;;;;;;4974834;28;20179;-86
2023/06/25 02:20:33;;;;;;;15.55;11.60;;;16.30;87.70;;;;;;4974427;28;20171;-87
2023/06/25 02:22:58;;;;;;;12.25;11.05;;;16.30;87.80;;;;;;4973099;28;20195;-86
2023/06/25 02:25:24;;;;;;;12.07;11.05;;;16.30;87.70;;;;;;4973547;28;20186;-87
2023/06/25 02:27:49;;;;;;;12.18;10.93;;;16.30;87.60;;;;;;4973154;28;20183;-87
2023/06/25 02:30:15;;;;;;;12.85;11.75;;;16.30;87.50;;;;;;4974664;28;20281;-86
2023/06/25 02:32:41;;;;;;;15.95;12.27;;;16.30;87.70;;;;;;4976381;28;20198;-86
2023/06/25 02:35:08;;;;;;;12.07;11.07;;;16.30;88.20;;;;;;4978837;28;20178;-86
2023/06/25 02:37:33;;;;;;;15.50;12.40;;;16.30;88.20;;;;;;4978495;28;20171;-87
2023/06/25 02:39:59;;;;;;;14.02;12.65;;;16.30;88.20;;;;;;4977076;28;20186;-86
2023/06/25 02:42:24;;;;;;;20.27;12.35;;;16.30;87.90;;;;;;4977002;28;20597;-86
2023/06/25 02:44:50;;;;;;;19.35;12.95;;;16.30;87.70;;;;;;4978098;28;20209;-86
2023/06/25 02:47:16;;;;;;;16.20;12.13;;;16.30;87.60;;;;;;4977473;28;20182;-87
2023/06/25 02:49:41;;;;;;;16.35;12.60;;;16.20;87.60;;;;;;4976887;28;20252;-87
2023/06/25 02:52:07;;;;;;;22.08;14.80;;;16.00;87.60;;;;;;4978048;28;20245;-86
2023/06/25 02:54:33;;;;;;;62.42;21.48;;;16.00;87.70;;;;;;4977956;28;20190;-87
2023/06/25 02:56:58;;;;;;;72.93;27.05;;;15.80;87.90;;;;;;4976769;28;20175;-87
2023/06/25 02:59:24;;;;;;;81.28;30.63;;;15.70;88.10;;;;;;4976903;28;20273;-87
2023/06/25 03:01:49;;;;;;;38.63;26.00;;;15.60;88.40;;;;;;4976682;28;20178;-86
2023/06/25 03:04:15;;;;;;;36.67;23.92;;;15.60;88.70;;;;;;4977799;28;20581;-87
2023/06/25 03:06:41;;;;;;;33.55;24.13;;;15.60;88.80;;;;;;4976646;28;20618;-87
2023/06/25 03:09:08;;;;;;;28.80;21.20;;;15.60;88.90;;;;;;4976474;28;20297;-86
2023/06/25 03:11:33;;;;;;;26.83;20.00;;;15.70;89.00;;;;;;4976551;28;20171;-86
2023/06/25 03:14:00;;;;;;;27.42;20.60;;;15.70;89.00;;;;;;4977612;28;20697;-86
2023/06/25 03:16:25;;;;;;;30.52;20.05;;;15.70;89.00;;;;;;4976388;28;20257;-86
2023/06/25 03:18:51;;;;;;;23.92;18.95;;;15.80;88.90;;;;;;4977610;28;20274;-86
2023/06/25 03:21:17;;;;;;;33.35;21.25;;;15.80;88.90;;;;;;4976310;28;20215;-87
2023/06/25 03:23:42;;;;;;;28.40;21.35;;;15.80;88.80;;;;;;4976341;28;20310;-86
2023/06/25 03:26:08;;;;;;;29.75;20.17;;;15.80;88.70;;;;;;4976263;28;20194;-87
2023/06/25 03:28:33;;;;;;;26.35;19.27;;;15.80;88.60;;;;;;4977356;28;20225;-87
2023/06/25 03:30:59;;;;;;;24.98;19.20;;;15.80;88.60;;;;;;4976270;28;20175;-87
2023/06/25 03:33:25;;;;;;;26.10;17.48;;;15.80;88.50;;;;;;4976068;28;20578;-87
2023/06/25 03:35:50;;;;;;;32.63;23.35;;;15.90;88.50;;;;;;4977299;28;20179;-86
2023/06/25 03:38:16;;;;;;;29.42;23.67;;;15.90;88.40;;;;;;4976074;28;20171;-87
2023/06/25 03:40:41;;;;;;;29.13;20.83;;;15.90;88.50;;;;;;4976001;28;20187;-87
2023/06/25 03:43:07;;;;;;;26.42;20.10;;;16.00;88.80;;;;;;4975219;28;20201;-86
2023/06/25 03:45:32;;;;;;;70.13;23.65;;;16.20;89.00;;;;;;4977402;28;20186;-87
2023/06/25 03:47:58;;;;;;;76.90;25.08;;;16.10;89.00;;;;;;4975863;28;20642;-87
2023/06/25 03:50:23;;;;;;;152.15;27.33;;;16.00;89.40;;;;;;4975849;28;20203;-86
2023/06/25 03:52:49;;;;;;;103.20;27.42;;;15.90;89.70;;;;;;4975808;28;20207;-87
2023/06/25 03:55:14;;;;;;;231.65;34.25;;;15.80;89.80;;;;;;4976921;28;20644;-87
2023/06/25 03:57:40;;;;;;;229.00;36.40;;;15.90;90.10;;;;;;4975603;28;20555;-86
2023/06/25 04:00:06;;;;;;;75.57;34.55;;;15.80;90.40;;;;;;4975572;28;20650;-87
2023/06/25 04:02:32;;;;;;;104.03;33.60;;;15.80;90.70;;;;;;4975874;28;20210;-86
2023/06/25 04:04:58;;;;;;;152.40;32.72;;;15.80;90.80;;;;;;4975575;28;20190;-87
2023/06/25 04:07:23;;;;;;;149.13;33.05;;;15.70;91.10;;;;;;4975530;28;20185;-87
2023/06/25 04:09:49;;;;;;;86.30;32.05;;;15.80;91.30;;;;;;4975463;28;20206;-87
2023/06/25 04:12:14;;;;;;;54.75;27.77;;;15.90;91.60;;;;;;4975411;28;20174;-86
2023/06/25 04:14:40;;;;;;;30.27;23.80;;;15.90;91.60;;;;;;4976607;28;20175;-87
2023/06/25 04:17:05;;;;;;;29.00;25.90;;;16.00;91.70;;;;;;4976610;28;20182;-87
2023/06/25 04:19:31;;;;;;;27.35;24.30;;;16.00;91.70;;;;;;4975392;28;20182;-87
2023/06/25 04:21:56;;;;;;;38.97;31.60;;;16.00;91.90;;;;;;4976500;28;20175;-86
2023/06/25 04:24:22;;;;;;;43.42;33.70;;;16.20;91.90;;;;;;4975113;28;20198;-87
2023/06/25 04:26:47;;;;;;;39.33;32.25;;;16.20;92.00;;;;;;4975277;28;20210;-87
2023/06/25 04:29:13;;;;;;;43.13;33.30;;;16.20;92.00;;;;;;4975064;28;20202;-86
2023/06/25 04:31:39;;;;;;;47.50;33.53;;;16.20;92.10;;;;;;4975156;28;20629;-86
2023/06/25 04:34:04;;;;;;;47.33;35.70;;;16.30;92.20;;;;;;4975034;28;20242;-87
2023/06/25 04:36:30;;;;;;;39.97;34.17;;;16.30;92.20;;;;;;4975203;28;20639;-87
2023/06/25 04:38:55;;;;;;;44.22;34.78;;;16.40;92.30;;;;;;4976103;28;20701;-87
2023/06/25 04:41:21;;;;;;;39.75;32.97;;;16.50;92.40;;;;;;4976148;28;20225;-87
2023/06/25 04:43:46;;;;;;;47.50;37.45;;;16.60;92.40;;;;;;4974795;28;20199;-86
2023/06/25 04:46:12;;;;;;;46.85;37.47;;;16.70;92.40;;;;;;4974877;28;20182;-87
2023/06/25 04:48:37;;;;;;;57.15;37.80;;;16.80;92.40;;;;;;4976007;28;20206;-87
2023/06/25 04:51:03;;;;;;;58.75;40.65;;;16.90;92.60;;;;;;4974651;28;20175;-87
2023/06/25 04:53:29;;;;;;;66.72;44.85;;;17.10;92.70;;;;;;4974419;28;20217;-86
2023/06/25 04:55:54;;;;;;;61.33;43.13;;;17.20;92.70;;;;;;4973712;28;20670;-87
2023/06/25 04:58:20;;;;;;;71.63;51.30;;;17.20;92.60;;;;;;4975851;28;20635;-87
2023/06/25 05:00:45;;;;;;;80.95;52.10;;;17.20;92.60;;;;;;4974638;28;20171;-87
2023/06/25 05:03:11;;;;;;;73.35;50.67;;;17.30;92.70;;;;;;4974471;28;20210;-87
2023/06/25 05:05:36;;;;;;;77.75;53.92;;;17.50;92.80;;;;;;4974680;28;20182;-87
2023/06/25 05:08:03;;;;;;;77.50;53.17;;;17.60;92.80;;;;;;4974547;28;20206;-87
2023/06/25 05:10:28;;;;;;;77.20;50.58;;;17.70;92.90;;;;;;4975544;28;20281;-87
2023/06/25 05:12:54;;;;;;;78.18;50.03;;;17.80;93.00;;;;;;4974370;28;20652;-87
2023/06/25 05:15:20;;;;;;;69.47;45.38;;;17.90;93.10;;;;;;4974379;28;20239;-87
2023/06/25 05:17:45;;;;;;;68.90;44.17;;;18.00;93.00;;;;;;4974261;28;20175;-87
2023/06/25 05:20:11;;;;;;;59.03;43.13;;;18.20;93.10;;;;;;4974222;28;20386;-87
2023/06/25 05:22:36;;;;;;;59.63;42.75;;;18.20;93.00;;;;;;4974092;28;20213;-86
2023/06/25 05:25:02;;;;;;;52.47;36.67;;;18.30;93.00;;;;;;4974657;28;20217;-87
2023/06/25 05:27:28;;;;;;;48.55;35.45;;;18.40;92.90;;;;;;4974235;28;20183;-87
2023/06/25 05:29:53;;;;;;;46.15;34.38;;;18.50;92.70;;;;;;4975422;28;20199;-86
2023/06/25 05:32:19;;;;;;;50.08;33.13;;;18.60;92.80;;;;;;4974136;28;20166;-87
2023/06/25 05:34:44;;;;;;;44.22;32.72;;;18.70;92.70;;;;;;4974212;28;20200;-87
2023/06/25 05:37:10;;;;;;;46.60;31.33;;;18.80;92.50;;;;;;4974118;28;20175;-87
2023/06/25 05:39:35;;;;;;;43.00;30.88;;;18.90;92.20;;;;;;4974531;28;20183;-87
2023/06/25 05:42:01;;;;;;;44.35;30.52;;;19.00;91.90;;;;;;4975917;28;20193;-87
2023/06/25 05:44:27;;;;;;;38.33;30.08;;;19.20;91.40;;;;;;4975149;28;20195;-87
2023/06/25 05:46:53;;;;;;;37.70;28.92;;;19.30;91.00;;;;;;4973951;28;20600;-87
2023/06/25 05:49:19;;;;;;;33.35;26.85;;;19.40;90.60;;;;;;4973816;28;20260;-87
2023/06/25 05:51:44;;;;;;;33.78;25.50;;;19.50;90.40;;;;;;4973980;28;20175;-87
2023/06/25 05:54:10;;;;;;;31.42;24.77;;;19.60;89.90;;;;;;4973589;28;20277;-87
2023/06/25 05:56:35;;;;;;;33.00;24.90;;;19.70;89.60;;;;;;4974993;28;20709;-87
2023/06/25 05:59:01;;;;;;;30.48;25.50;;;19.80;89.30;;;;;;4974945;28;20185;-87
2023/06/25 06:01:26;;;;;;;28.13;23.27;;;20.00;89.00;;;;;;4973884;28;20174;-88
2023/06/25 06:03:52;;;;;;;28.45;20.83;;;19.90;87.80;;;;;;4975115;28;20206;-87
2023/06/25 06:06:18;;;;;;;24.88;19.10;;;20.10;87.60;;;;;;4974764;28;20762;-87
2023/06/25 06:08:44;;;;;;;23.25;19.23;;;20.20;86.90;;;;;;4973781;28;20213;-87
2023/06/25 06:11:10;;;;;;;19.45;17.38;;;20.30;86.30;;;;;;4975077;28;20249;-87
2023/06/25 06:13:36;;;;;;;18.55;15.88;;;20.50;85.80;;;;;;4973770;28;20686;-87
2023/06/25 06:16:01;;;;;;;18.40;15.82;;;20.60;84.40;;;;;;4973770;28;20580;-87
2023/06/25 06:18:27;;;;;;;18.35;15.55;;;20.70;83.30;;;;;;4975064;28;20170;-87
2023/06/25 06:20:53;;;;;;;20.45;15.32;;;20.80;82.30;;;;;;4973647;28;20175;-88
2023/06/25 06:23:18;;;;;;;16.83;15.23;;;20.90;80.50;;;;;;4974765;28;20187;-87
2023/06/25 06:25:44;;;;;;;19.50;15.43;;;20.90;80.10;;;;;;4973493;28;20205;-87
2023/06/25 06:28:09;;;;;;;20.75;15.20;;;21.10;79.40;;;;;;4974641;28;20246;-87
2023/06/25 06:30:35;;;;;;;18.08;15.25;;;21.20;78.10;;;;;;4973885;28;20202;-87
2023/06/25 06:33:00;;;;;;;18.80;16.00;;;21.40;76.20;;;;;;4973520;28;20274;-87
2023/06/25 06:35:26;;;;;;;15.57;13.95;;;21.60;75.30;;;;;;4973563;28;20185;-87
2023/06/25 06:37:51;;;;;;;16.02;13.50;;;21.50;75.40;;;;;;4974773;28;20179;-87
2023/06/25 06:40:17;;;;;;;14.18;12.95;;;21.50;75.30;;;;;;4973533;28;20178;-87
2023/06/25 06:42:42;;;;;;;14.65;13.18;;;21.70;74.20;;;;;;4973257;28;20202;-87
2023/06/25 06:45:08;;;;;;;15.60;14.00;;;21.80;74.40;;;;;;4974562;28;20183;-87
2023/06/25 06:47:34;;;;;;;15.02;13.50;;;22.00;74.30;;;;;;4973552;28;20269;-87
2023/06/25 06:50:00;;;;;;;14.82;13.35;;;22.20;72.90;;;;;;4975172;28;20302;-87
2023/06/25 06:52:26;;;;;;;14.90;13.60;;;22.20;71.60;;;;;;4974696;28;20214;-87
2023/06/25 06:54:52;;;;;;;17.52;15.65;;;22.30;71.70;;;;;;4973315;28;20651;-87
2023/06/25 06:57:18;;;;;;;17.40;15.70;;;22.20;71.40;;;;;;4974770;28;20171;-87
2023/06/25 06:59:46;;;;;;;19.48;16.65;;;22.00;73.10;;;;;;4973348;28;20664;-87
2023/06/25 07:02:12;;;;;;;28.90;15.82;;;22.20;71.50;;;;;;4973084;28;20187;-87
2023/06/25 07:04:38;;;;;;;16.65;14.95;;;22.30;71.60;;;;;;4973179;28;20185;-87
2023/06/25 07:07:05;;;;;;;15.95;14.65;;;22.10;71.00;;;;;;4973221;28;20207;-87
2023/06/25 07:09:30;;;;;;;16.67;15.18;;;22.00;70.30;;;;;;4974258;28;20245;-87
2023/06/25 07:11:56;;;;;;;15.55;14.23;;;21.80;69.20;;;;;;4973166;28;20171;-87
2023/06/25 07:14:21;;;;;;;16.02;14.40;;;22.00;71.10;;;;;;4974262;28;20623;-87
2023/06/25 07:16:47;;;;;;;17.52;15.48;;;21.90;70.20;;;;;;4974664;28;20179;-87
2023/06/25 07:19:12;;;;;;;16.38;14.73;;;22.00;71.80;;;;;;4975155;28;20185;-87
2023/06/25 07:21:39;;;;;;;17.65;15.85;;;22.10;72.70;;;;;;4976822;28;20183;-87
2023/06/25 07:24:05;;;;;;;17.45;15.65;;;22.10;71.30;;;;;;4977742;28;20202;-87
2023/06/25 07:26:30;;;;;;;16.08;14.70;;;22.10;70.50;;;;;;4976521;28;20236;-87
2023/06/25 07:28:56;;;;;;;15.98;14.65;;;22.00;70.80;;;;;;4977525;28;20221;-87
2023/06/25 07:31:22;;;;;;;16.02;14.48;;;22.20;72.10;;;;;;4976404;28;20187;-87
2023/06/25 07:33:47;;;;;;;16.42;14.95;;;22.30;72.50;;;;;;4976190;28;20191;-87
2023/06/25 07:36:13;;;;;;;17.83;16.13;;;22.30;71.10;;;;;;4977443;28;20171;-87
2023/06/25 07:38:38;;;;;;;16.35;15.07;;;22.50;70.70;;;;;;4976325;28;20174;-87
2023/06/25 07:41:04;;;;;;;17.67;15.98;;;22.70;70.30;;;;;;4976175;28;20661;-88
2023/06/25 07:43:29;;;;;;;17.00;15.50;;;22.70;70.00;;;;;;4976155;28;20195;-87
2023/06/25 07:45:55;;;;;;;16.95;15.45;;;22.60;72.10;;;;;;4976107;28;20170;-87
2023/06/25 07:48:20;;;;;;;16.42;15.13;;;22.90;72.10;;;;;;4976166;28;20182;-87
2023/06/25 07:50:46;;;;;;;15.48;14.23;;;23.10;71.10;;;;;;4977498;28;20670;-87
2023/06/25 07:53:12;;;;;;;17.08;15.63;;;23.20;71.00;;;;;;4975943;28;20615;-87
2023/06/25 07:55:41;;;;;;;17.52;16.02;;;23.10;69.20;;;;;;4976603;28;20174;-88
2023/06/25 07:58:07;;;;;;;17.30;15.80;;;23.20;69.60;;;;;;4977907;28;20198;-87
2023/06/25 08:00:34;;;;;;;16.50;15.13;;;23.30;70.40;;;;;;4977539;28;20627;-88
2023/06/25 08:03:00;;;;;;;16.17;14.80;;;23.60;70.10;;;;;;4977297;28;20281;-87
2023/06/25 08:05:25;;;;;;;17.42;16.05;;;23.70;69.60;;;;;;4977263;28;20202;-88
2023/06/25 08:07:51;;;;;;;16.65;14.82;;;23.80;69.00;;;;;;4976091;28;20179;-88
2023/06/25 08:10:16;;;;;;;16.27;15.07;;;23.70;68.30;;;;;;4975739;28;20296;-87
2023/06/25 08:12:42;;;;;;;15.27;13.95;;;23.60;66.40;;;;;;4975701;28;20678;-87
2023/06/25 08:15:08;;;;;;;15.55;14.45;;;23.90;65.90;;;;;;4975977;28;20174;-87
2023/06/25 08:17:34;;;;;;;17.35;15.75;;;23.90;65.10;;;;;;4975765;28;20175;-87
2023/06/25 08:19:59;;;;;;;17.67;15.82;;;23.90;66.60;;;;;;4975812;28;20227;-87
2023/06/25 08:22:25;;;;;;;16.52;15.23;;;24.10;67.20;;;;;;4975522;28;20269;-87
2023/06/25 08:24:50;;;;;;;17.45;15.95;;;24.20;65.80;;;;;;4975858;28;20183;-87
2023/06/25 08:27:16;;;;;;;16.58;15.27;;;24.20;66.70;;;;;;4975487;28;20643;-88
2023/06/25 08:29:42;;;;;;;15.68;14.48;;;24.40;65.70;;;;;;4975153;28;20624;-87
2023/06/25 08:32:07;;;;;;;17.50;16.20;;;24.20;65.90;;;;;;4975419;28;20251;-87
2023/06/25 08:34:33;;;;;;;17.92;16.40;;;24.20;67.50;;;;;;4975388;28;20175;-87
2023/06/25 08:36:58;;;;;;;17.55;16.25;;;24.40;67.30;;;;;;4975432;28;20266;-87
2023/06/25 08:39:24;;;;;;;17.92;16.50;;;24.40;66.60;;;;;;4975393;28;20205;-87
2023/06/25 08:41:50;;;;;;;17.95;16.52;;;24.40;65.30;;;;;;4976908;28;20266;-87
2023/06/25 08:44:16;;;;;;;17.38;15.90;;;24.50;64.80;;;;;;4976698;28;20572;-87
2023/06/25 08:46:47;;;;;;;18.77;17.10;;;24.60;64.10;;;;;;4976743;28;20181;-87
2023/06/25 08:49:13;;;;;;;18.10;16.40;;;24.60;63.90;;;;;;4975109;28;20206;-88
2023/06/25 08:51:39;;;;;;;17.33;16.00;;;24.80;64.30;;;;;;4975378;28;20185;-87
2023/06/25 08:54:05;;;;;;;18.08;16.77;;;24.80;65.60;;;;;;4975039;28;20210;-87
2023/06/25 08:56:30;;;;;;;17.90;16.48;;;24.90;63.10;;;;;;4975052;28;20167;-87
2023/06/25 08:58:56;;;;;;;18.80;17.00;;;25.10;64.20;;;;;;4976161;28;20669;-87
2023/06/25 09:01:22;;;;;;;17.80;16.50;;;25.20;64.00;;;;;;4975118;28;20183;-87
2023/06/25 09:03:47;;;;;;;20.15;18.55;;;25.20;63.30;;;;;;4976206;28;20226;-88
2023/06/25 09:06:15;;;;;;;18.92;17.50;;;25.20;62.10;;;;;;4975651;28;20183;-88
2023/06/25 09:08:42;;;;;;;18.95;17.30;;;25.10;64.20;;;;;;4975517;28;20206;-88
2023/06/25 09:11:08;;;;;;;19.88;18.27;;;25.50;63.20;;;;;;4975480;28;20179;-88
2023/06/25 09:13:34;;;;;;;20.50;18.42;;;25.50;63.90;;;;;;4974881;28;20201;-88
2023/06/25 09:16:02;;;;;;;18.70;17.20;;;25.70;63.30;;;;;;4974785;28;20170;-88
2023/06/25 09:18:29;;;;;;;21.38;19.65;;;26.10;64.20;;;;;;4974661;28;20181;-87
2023/06/25 09:20:55;;;;;;;19.65;18.15;;;26.00;62.40;;;;;;4974487;28;20226;-87
2023/06/25 09:23:24;;;;;;;19.90;18.48;;;25.80;63.80;;;;;;4974255;28;20202;-87
2023/06/25 09:25:51;;;;;;;20.00;18.40;;;26.10;62.90;;;;;;4975711;28;20221;-87
2023/06/25 09:28:17;;;;;;;20.13;18.60;;;26.20;62.40;;;;;;4974479;28;20179;-87
2023/06/25 09:30:43;;;;;;;20.15;18.30;;;26.50;62.10;;;;;;4974292;28;20225;-87
2023/06/25 09:33:11;;;;;;;20.52;18.92;;;26.60;61.30;;;;;;4974314;28;20682;-87
2023/06/25 09:35:36;;;;;;;21.10;19.30;;;26.60;60.90;;;;;;4974637;28;20178;-87
2023/06/25 09:38:02;;;;;;;20.95;19.15;;;26.40;61.70;;;;;;4974202;28;20221;-87
2023/06/25 09:40:28;;;;;;;20.15;18.52;;;26.20;63.10;;;;;;4975240;28;20567;-87
2023/06/25 09:42:56;;;;;;;19.52;17.95;;;26.20;62.10;;;;;;4974004;28;20203;-87
2023/06/25 09:45:23;;;;;;;19.77;18.10;;;26.70;62.10;;;;;;4974408;28;20663;-87
2023/06/25 09:47:50;;;;;;;20.73;19.13;;;27.20;60.70;;;;;;4974046;28;20557;-87
2023/06/25 09:50:26;;;;;;;21.02;19.05;;;27.70;57.20;;;;;;4974187;28;20209;-87
2023/06/25 09:52:56;;;;;;;25.80;23.70;;;27.70;57.10;;;;;;4974017;28;20716;-87
2023/06/25 09:55:22;;;;;;;27.23;25.30;;;27.20;58.90;;;;;;4974273;28;20187;-87
2023/06/25 09:57:49;;;;;;;25.15;23.23;;;27.30;59.50;;;;;;4975157;28;20182;-87
2023/06/25 10:00:16;;;;;;;28.08;26.17;;;27.70;58.30;;;;;;4975056;28;20181;-87
2023/06/25 10:02:41;;;;;;;29.58;27.60;;;27.30;56.10;;;;;;4974257;28;20199;-87
2023/06/25 10:05:07;;;;;;;20.33;18.75;;;27.10;60.20;;;;;;4974405;28;20710;-87
2023/06/25 10:07:33;;;;;;;20.48;18.83;;;27.30;59.10;;;;;;4975280;28;20175;-87
2023/06/25 10:09:59;;;;;;;20.92;19.08;;;26.60;57.50;;;;;;4973917;28;20327;-87
2023/06/25 10:12:25;;;;;;;20.65;18.95;;;27.00;59.30;;;;;;4973943;28;20583;-87
2023/06/25 10:14:52;;;;;;;20.10;18.48;;;27.20;57.10;;;;;;4973571;28;20535;-87
2023/06/25 10:17:20;;;;;;;21.17;19.17;;;26.90;58.50;;;;;;4973516;28;20175;-87
2023/06/25 10:19:54;;;;;;;20.88;19.08;;;27.20;58.10;;;;;;4973864;28;20174;-87
2023/06/25 10:22:23;;;;;;;20.05;18.55;;;27.20;58.20;;;;;;4973525;28;20214;-87
2023/06/25 10:24:49;;;;;;;19.88;18.38;;;27.10;58.10;;;;;;4973782;28;20266;-87
2023/06/25 10:27:24;;;;;;;20.33;18.45;;;27.70;57.40;;;;;;4974008;28;20190;-87
2023/06/25 10:29:50;;;;;;;20.17;18.58;;;27.50;55.00;;;;;;4973699;28;20221;-87
2023/06/25 10:32:24;;;;;;;19.13;17.33;;;27.50;54.90;;;;;;4973737;28;20258;-87
2023/06/25 10:34:59;;;;;;;18.67;17.33;;;27.40;57.40;;;;;;4975471;28;20198;-88
2023/06/25 10:37:29;;;;;;;20.00;18.20;;;27.80;56.30;;;;;;4974090;28;20551;-87
2023/06/25 10:40:02;;;;;;;19.98;18.58;;;28.00;56.80;;;;;;4973823;28;20664;-87
2023/06/25 10:42:30;;;;;;;19.85;18.10;;;27.60;56.00;;;;;;4976337;28;20252;-88
2023/06/25 10:44:55;;;;;;;20.25;18.50;;;27.60;56.90;;;;;;4976690;28;20167;-87
2023/06/25 10:47:21;;;;;;;20.17;18.65;;;28.10;55.80;;;;;;4973272;28;20185;-87
2023/06/25 10:49:46;;;;;;;20.67;19.27;;;27.60;53.80;;;;;;4972914;28;20220;-87
2023/06/25 10:52:12;;;;;;;20.23;18.73;;;27.80;53.80;;;;;;4973769;28;20186;-86
2023/06/25 10:54:37;;;;;;;22.25;20.50;;;28.00;55.40;;;;;;4976111;28;20641;-87
2023/06/25 10:57:09;;;;;;;20.75;19.02;;;28.10;55.00;;;;;;4977290;28;20197;-87
2023/06/25 10:59:35;;;;;;;19.80;18.35;;;28.60;54.40;;;;;;4977460;28;20181;-87
2023/06/25 11:02:21;;;;;;;19.92;18.30;;;28.60;54.10;;;;;;4977069;28;20266;-87
2023/06/25 11:04:54;;;;;;;19.38;17.88;;;28.20;52.20;;;;;;4977720;28;20576;-87
2023/06/25 11:07:21;;;;;;;19.77;18.17;;;28.50;53.00;;;;;;4977203;28;20667;-87
2023/06/25 11:10:00;;;;;;;20.80;18.98;;;28.80;51.70;;;;;;4978141;28;20290;-87
2023/06/25 11:12:26;;;;;;;19.92;18.35;;;28.90;50.30;;;;;;4976886;28;20906;-87
2023/06/25 11:14:52;;;;;;;20.35;18.52;;;29.40;49.70;;;;;;4977251;28;20179;-87
2023/06/25 11:17:17;;;;;;;20.65;18.95;;;29.60;52.00;;;;;;4978015;28;20178;-87
2023/06/25 11:19:49;;;;;;;19.20;17.65;;;29.60;50.50;;;;;;4977459;28;20183;-87
2023/06/25 11:22:14;;;;;;;19.00;17.35;;;29.90;50.60;;;;;;4978733;28;20166;-86
2023/06/25 11:24:40;;;;;;;19.73;17.75;;;30.00;51.30;;;;;;4977794;28;20249;-87
2023/06/25 11:27:06;;;;;;;18.58;17.13;;;29.30;49.60;;;;;;4978196;28;20639;-87
2023/06/25 11:29:40;;;;;;;19.10;17.67;;;29.50;51.00;;;;;;4976491;28;20207;-87
2023/06/25 11:32:09;;;;;;;18.92;17.50;;;29.50;49.90;;;;;;4978175;28;20158;-86
2023/06/25 11:34:35;;;;;;;18.50;17.08;;;28.80;54.10;;;;;;4977502;28;20245;-87
2023/06/25 11:37:15;;;;;;;18.48;17.05;;;29.00;51.20;;;;;;4977910;28;20174;-87
2023/06/25 11:39:49;;;;;;;17.83;16.63;;;28.60;52.60;;;;;;4976654;28;20561;-87
2023/06/25 11:42:24;;;;;;;18.90;17.40;;;28.50;54.00;;;;;;4977640;28;20229;-87
2023/06/25 11:45:07;;;;;;;19.15;17.75;;;28.70;52.00;;;;;;4976758;28;20174;-87
2023/06/25 11:47:33;;;;;;;18.38;16.98;;;29.00;54.20;;;;;;4976320;28;20194;-87
2023/06/25 11:50:00;;;;;;;18.98;17.67;;;28.90;51.30;;;;;;4976028;28;20210;-87
2023/06/25 11:52:26;;;;;;;18.95;17.40;;;28.80;52.00;;;;;;4976113;28;20206;-86
2023/06/25 11:54:53;;;;;;;18.65;17.38;;;29.40;49.50;;;;;;4976596;28;20197;-87
2023/06/25 11:57:18;;;;;;;18.55;17.05;;;29.60;49.70;;;;;;4977489;28;20254;-87
2023/06/25 11:59:44;;;;;;;19.15;17.27;;;29.80;50.50;;;;;;4977148;28;20170;-87
2023/06/25 12:02:10;;;;;;;18.08;16.88;;;29.90;48.40;;;;;;4976804;28;20627;-86
2023/06/25 12:04:36;;;;;;;18.17;16.83;;;29.20;48.00;;;;;;4976649;28;20230;-86
2023/06/25 12:07:02;;;;;;;18.00;16.83;;;29.00;49.50;;;;;;4977202;28;20178;-87
2023/06/25 12:09:28;;;;;;;18.83;17.48;;;29.40;49.90;;;;;;4977599;28;20198;-87
2023/06/25 12:11:55;;;;;;;18.15;16.85;;;30.10;50.20;;;;;;4976773;28;20278;-87
2023/06/25 12:14:21;;;;;;;18.42;17.13;;;30.20;49.10;;;;;;4975690;28;20701;-87
2023/06/25 12:16:46;;;;;;;18.65;17.15;;;30.20;48.70;;;;;;4976769;28;20174;-87
2023/06/25 12:19:12;;;;;;;19.05;17.65;;;29.50;48.60;;;;;;4975738;28;20271;-86
2023/06/25 12:21:37;;;;;;;19.23;17.83;;;29.20;50.70;;;;;;4975795;28;20178;-86